sensor_id;sensor_type;location;lat;lon;timestamp;temperature;humidity
12815;DHT22;6472;52.328;13.070;2023-02-17T00:00:59;7.00;99.90
12815;DHT22;6472;52.328;13.070;2023-02-17T00:03:27;7.00;99.90
12815;DHT22;6472;52.328;13.070;2023-02-17T00:05:55;7.10;99.90
12815;DHT22;6472;52.328;13.070;2023-02-17T00:08:23;7.10;99.90
12815;DHT22;6472;52.328;13.070;2023-02-17T00:10:55;7.10;99.90
12815;DHT22;6472;52.328;13.070;2023-02-17T00:13:24;7.10;99.90
12815;DHT22;6472;52.328;13.070;2023-02-17T00:15:53;7.10;99.90
12815;DHT22;6472;52.328;13.070;2023-02-17T00:18:22;7.10;99.90
12815;DHT22;6472;52.328;13.070;2023-02-17T00:20:51;7.10;99.90
12815;DHT22;6472;52.328;13.070;2023-02-17T00:23:19;7.00;99.90
12815;DHT22;6472;52.328;13.070;2023-02-17T00:25:47;7.00;99.90
12815;DHT22;6472;52.328;13.070;2023-02-17T00:28:15;6.90;99.90
12815;DHT22;6472;52.328;13.070;2023-02-17T00:30:43;6.90;99.90
12815;DHT22;6472;52.328;13.070;2023-02-17T00:33:11;6.80;99.90
12815;DHT22;6472;52.328;13.070;2023-02-17T00:35:40;6.80;99.90
12815;DHT22;6472;52.328;13.070;2023-02-17T00:38:09;6.70;99.90
12815;DHT22;6472;52.328;13.070;2023-02-17T00:40:37;6.70;99.90
12815;DHT22;6472;52.328;13.070;2023-02-17T00:43:05;6.70;99.90
12815;DHT22;6472;52.328;13.070;2023-02-17T00:45:33;6.70;99.90
12815;DHT22;6472;52.328;13.070;2023-02-17T00:48:01;6.80;99.90
12815;DHT22;6472;52.328;13.070;2023-02-17T00:50:29;6.70;99.90
12815;DHT22;6472;52.328;13.070;2023-02-17T00:52:59;6.70;99.90
12815;DHT22;6472;52.328;13.070;2023-02-17T00:55:27;6.90;99.90
12815;DHT22;6472;52.328;13.070;2023-02-17T00:57:55;6.70;99.90
12815;DHT22;6472;52.328;13.070;2023-02-17T01:00:23;6.70;99.90
12815;DHT22;6472;52.328;13.070;2023-02-17T01:02:51;6.60;99.90
12815;DHT22;6472;52.328;13.070;2023-02-17T01:05:19;6.60;99.90
12815;DHT22;6472;52.328;13.070;2023-02-17T01:07:47;6.60;99.90
12815;DHT22;6472;52.328;13.070;2023-02-17T01:10:17;6.60;99.90
12815;DHT22;6472;52.328;13.070;2023-02-17T01:12:45;6.50;99.90
12815;DHT22;6472;52.328;13.070;2023-02-17T01:15:14;6.50;99.90
12815;DHT22;6472;52.328;13.070;2023-02-17T01:17:42;6.50;99.90
12815;DHT22;6472;52.328;13.070;2023-02-17T01:20:10;6.50;99.90
12815;DHT22;6472;52.328;13.070;2023-02-17T01:22:38;6.50;99.90
12815;DHT22;6472;52.328;13.070;2023-02-17T01:25:07;6.50;99.90
12815;DHT22;6472;52.328;13.070;2023-02-17T01:27:37;6.50;99.90
12815;DHT22;6472;52.328;13.070;2023-02-17T01:30:06;6.50;99.90
12815;DHT22;6472;52.328;13.070;2023-02-17T01:32:36;6.50;99.90
12815;DHT22;6472;52.328;13.070;2023-02-17T01:35:04;6.50;99.90
12815;DHT22;6472;52.328;13.070;2023-02-17T01:37:32;6.50;99.90
12815;DHT22;6472;52.328;13.070;2023-02-17T01:40:01;6.50;99.90
12815;DHT22;6472;52.328;13.070;2023-02-17T01:42:29;6.50;99.90
12815;DHT22;6472;52.328;13.070;2023-02-17T01:45:36;6.50;99.90
12815;DHT22;6472;52.328;13.070;2023-02-17T01:48:09;6.50;99.90
12815;DHT22;6472;52.328;13.070;2023-02-17T01:50:41;6.50;99.90
12815;DHT22;6472;52.328;13.070;2023-02-17T01:53:14;6.60;99.90
12815;DHT22;6472;52.328;13.070;2023-02-17T01:55:44;6.60;99.90
12815;DHT22;6472;52.328;13.070;2023-02-17T01:58:15;6.50;99.90
12815;DHT22;6472;52.328;13.070;2023-02-17T02:00:47;6.70;99.90
12815;DHT22;6472;52.328;13.070;2023-02-17T02:03:15;6.70;99.90
12815;DHT22;6472;52.328;13.070;2023-02-17T02:05:43;6.70;99.90
12815;DHT22;6472;52.328;13.070;2023-02-17T02:08:12;6.70;99.90
12815;DHT22;6472;52.328;13.070;2023-02-17T02:10:41;6.70;99.90
12815;DHT22;6472;52.328;13.070;2023-02-17T02:13:09;6.70;99.90
12815;DHT22;6472;52.328;13.070;2023-02-17T02:15:43;6.70;99.90
12815;DHT22;6472;52.328;13.070;2023-02-17T02:18:28;6.70;99.90
12815;DHT22;6472;52.328;13.070;2023-02-17T02:24:08;6.70;99.90
12815;DHT22;6472;52.328;13.070;2023-02-17T02:26:53;6.70;99.90
12815;DHT22;6472;52.328;13.070;2023-02-17T02:29:39;6.90;99.90
12815;DHT22;6472;52.328;13.070;2023-02-17T02:32:26;6.70;99.90
12815;DHT22;6472;52.328;13.070;2023-02-17T02:35:00;6.80;99.90
12815;DHT22;6472;52.328;13.070;2023-02-17T02:37:37;6.70;99.90
12815;DHT22;6472;52.328;13.070;2023-02-17T02:40:08;6.80;99.90
12815;DHT22;6472;52.328;13.070;2023-02-17T02:42:38;6.80;99.90
12815;DHT22;6472;52.328;13.070;2023-02-17T02:45:08;6.80;99.90
12815;DHT22;6472;52.328;13.070;2023-02-17T02:47:47;6.90;99.90
12815;DHT22;6472;52.328;13.070;2023-02-17T02:50:18;6.90;99.90
12815;DHT22;6472;52.328;13.070;2023-02-17T02:52:54;6.90;99.90
12815;DHT22;6472;52.328;13.070;2023-02-17T02:55:35;6.80;99.90
12815;DHT22;6472;52.328;13.070;2023-02-17T02:58:10;6.90;99.90
12815;DHT22;6472;52.328;13.070;2023-02-17T03:00:45;7.00;99.90
12815;DHT22;6472;52.328;13.070;2023-02-17T03:03:28;7.00;99.90
12815;DHT22;6472;52.328;13.070;2023-02-17T03:06:05;7.00;99.90
12815;DHT22;6472;52.328;13.070;2023-02-17T03:08:37;7.00;99.90
12815;DHT22;6472;52.328;13.070;2023-02-17T03:11:06;7.00;99.90
12815;DHT22;6472;52.328;13.070;2023-02-17T03:13:35;7.00;99.90
12815;DHT22;6472;52.328;13.070;2023-02-17T03:16:08;7.00;99.90
12815;DHT22;6472;52.328;13.070;2023-02-17T03:18:40;7.00;99.90
12815;DHT22;6472;52.328;13.070;2023-02-17T03:21:13;7.00;99.90
12815;DHT22;6472;52.328;13.070;2023-02-17T03:23:41;7.00;99.90
12815;DHT22;6472;52.328;13.070;2023-02-17T03:26:10;7.00;99.90
12815;DHT22;6472;52.328;13.070;2023-02-17T03:28:38;7.00;99.90
12815;DHT22;6472;52.328;13.070;2023-02-17T03:31:06;7.00;99.90
12815;DHT22;6472;52.328;13.070;2023-02-17T03:33:34;6.90;99.90
12815;DHT22;6472;52.328;13.070;2023-02-17T03:36:05;6.90;99.90
12815;DHT22;6472;52.328;13.070;2023-02-17T03:38:33;6.90;99.90
12815;DHT22;6472;52.328;13.070;2023-02-17T03:41:01;6.90;99.90
12815;DHT22;6472;52.328;13.070;2023-02-17T03:43:29;6.90;99.90
12815;DHT22;6472;52.328;13.070;2023-02-17T03:45:57;6.90;99.90
12815;DHT22;6472;52.328;13.070;2023-02-17T03:48:26;6.90;99.90
12815;DHT22;6472;52.328;13.070;2023-02-17T03:50:54;6.90;99.90
12815;DHT22;6472;52.328;13.070;2023-02-17T03:53:23;6.90;99.90
12815;DHT22;6472;52.328;13.070;2023-02-17T03:55:52;6.90;99.90
12815;DHT22;6472;52.328;13.070;2023-02-17T03:58:19;7.00;99.90
12815;DHT22;6472;52.328;13.070;2023-02-17T04:00:48;7.00;99.90
12815;DHT22;6472;52.328;13.070;2023-02-17T04:03:15;7.00;99.90
12815;DHT22;6472;52.328;13.070;2023-02-17T04:05:44;7.00;99.90
12815;DHT22;6472;52.328;13.070;2023-02-17T04:08:12;6.90;99.90
12815;DHT22;6472;52.328;13.070;2023-02-17T04:10:41;6.90;99.90
12815;DHT22;6472;52.328;13.070;2023-02-17T04:13:10;6.90;99.90
12815;DHT22;6472;52.328;13.070;2023-02-17T04:15:38;7.00;99.90
12815;DHT22;6472;52.328;13.070;2023-02-17T04:18:07;6.80;99.90
12815;DHT22;6472;52.328;13.070;2023-02-17T04:20:35;6.90;99.90
12815;DHT22;6472;52.328;13.070;2023-02-17T04:23:03;6.80;99.90
12815;DHT22;6472;52.328;13.070;2023-02-17T04:25:32;6.80;99.90
12815;DHT22;6472;52.328;13.070;2023-02-17T04:28:02;6.80;99.90
12815;DHT22;6472;52.328;13.070;2023-02-17T04:30:31;6.80;99.90
12815;DHT22;6472;52.328;13.070;2023-02-17T04:32:59;6.80;99.90
12815;DHT22;6472;52.328;13.070;2023-02-17T04:35:28;6.70;99.90
12815;DHT22;6472;52.328;13.070;2023-02-17T04:37:56;6.80;99.90
12815;DHT22;6472;52.328;13.070;2023-02-17T04:40:24;6.80;99.90
12815;DHT22;6472;52.328;13.070;2023-02-17T04:42:52;6.80;99.90
12815;DHT22;6472;52.328;13.070;2023-02-17T04:45:22;6.80;99.90
12815;DHT22;6472;52.328;13.070;2023-02-17T04:47:50;6.70;99.90
12815;DHT22;6472;52.328;13.070;2023-02-17T04:50:19;6.80;99.90
12815;DHT22;6472;52.328;13.070;2023-02-17T04:52:47;6.80;99.90
12815;DHT22;6472;52.328;13.070;2023-02-17T04:55:15;6.80;99.90
12815;DHT22;6472;52.328;13.070;2023-02-17T04:57:43;6.70;99.90
12815;DHT22;6472;52.328;13.070;2023-02-17T05:00:12;6.70;99.90
12815;DHT22;6472;52.328;13.070;2023-02-17T05:02:42;6.80;99.90
12815;DHT22;6472;52.328;13.070;2023-02-17T05:05:10;6.80;99.90
12815;DHT22;6472;52.328;13.070;2023-02-17T05:07:41;6.80;99.90
12815;DHT22;6472;52.328;13.070;2023-02-17T05:10:10;6.80;99.90
12815;DHT22;6472;52.328;13.070;2023-02-17T05:12:38;6.80;99.90
12815;DHT22;6472;52.328;13.070;2023-02-17T05:15:07;6.70;99.90
12815;DHT22;6472;52.328;13.070;2023-02-17T05:17:39;6.70;99.90
12815;DHT22;6472;52.328;13.070;2023-02-17T05:20:11;6.90;99.90
12815;DHT22;6472;52.328;13.070;2023-02-17T05:22:40;6.70;99.90
12815;DHT22;6472;52.328;13.070;2023-02-17T05:25:08;6.70;99.90
12815;DHT22;6472;52.328;13.070;2023-02-17T05:27:36;6.90;99.90
12815;DHT22;6472;52.328;13.070;2023-02-17T05:30:06;6.80;99.90
12815;DHT22;6472;52.328;13.070;2023-02-17T05:32:35;6.80;99.90
12815;DHT22;6472;52.328;13.070;2023-02-17T05:35:03;6.80;99.90
12815;DHT22;6472;52.328;13.070;2023-02-17T05:37:33;6.80;99.90
12815;DHT22;6472;52.328;13.070;2023-02-17T05:40:01;6.80;99.90
12815;DHT22;6472;52.328;13.070;2023-02-17T05:42:30;6.80;99.90
12815;DHT22;6472;52.328;13.070;2023-02-17T05:44:58;6.80;99.90
12815;DHT22;6472;52.328;13.070;2023-02-17T05:47:26;6.80;99.90
12815;DHT22;6472;52.328;13.070;2023-02-17T05:49:55;6.90;99.90
12815;DHT22;6472;52.328;13.070;2023-02-17T05:52:23;6.80;99.90
12815;DHT22;6472;52.328;13.070;2023-02-17T05:54:52;6.90;99.90
12815;DHT22;6472;52.328;13.070;2023-02-17T05:57:20;6.90;99.90
12815;DHT22;6472;52.328;13.070;2023-02-17T05:59:49;7.20;99.90
12815;DHT22;6472;52.328;13.070;2023-02-17T06:02:17;7.10;99.90
12815;DHT22;6472;52.328;13.070;2023-02-17T06:04:45;7.10;99.90
12815;DHT22;6472;52.328;13.070;2023-02-17T06:07:13;7.10;99.90
12815;DHT22;6472;52.328;13.070;2023-02-17T06:09:41;7.20;99.90
12815;DHT22;6472;52.328;13.070;2023-02-17T06:12:14;7.20;99.90
12815;DHT22;6472;52.328;13.070;2023-02-17T06:14:42;7.30;99.90
12815;DHT22;6472;52.328;13.070;2023-02-17T06:17:10;7.50;99.90
12815;DHT22;6472;52.328;13.070;2023-02-17T06:19:38;7.50;99.90
12815;DHT22;6472;52.328;13.070;2023-02-17T06:22:06;7.40;99.90
12815;DHT22;6472;52.328;13.070;2023-02-17T06:24:36;7.40;99.90
12815;DHT22;6472;52.328;13.070;2023-02-17T06:27:04;7.50;99.90
12815;DHT22;6472;52.328;13.070;2023-02-17T06:29:34;7.50;99.90
12815;DHT22;6472;52.328;13.070;2023-02-17T06:36:13;7.50;99.90
12815;DHT22;6472;52.328;13.070;2023-02-17T06:39:25;7.60;99.90
12815;DHT22;6472;52.328;13.070;2023-02-17T06:41:54;7.70;99.90
12815;DHT22;6472;52.328;13.070;2023-02-17T06:44:23;7.60;99.90
12815;DHT22;6472;52.328;13.070;2023-02-17T06:46:52;7.60;99.90
12815;DHT22;6472;52.328;13.070;2023-02-17T06:49:20;7.60;99.90
12815;DHT22;6472;52.328;13.070;2023-02-17T06:51:48;7.70;99.90
12815;DHT22;6472;52.328;13.070;2023-02-17T06:54:17;7.70;99.90
12815;DHT22;6472;52.328;13.070;2023-02-17T06:56:45;7.70;99.90
12815;DHT22;6472;52.328;13.070;2023-02-17T06:59:13;7.70;99.90
12815;DHT22;6472;52.328;13.070;2023-02-17T07:01:41;7.80;99.90
12815;DHT22;6472;52.328;13.070;2023-02-17T07:04:11;7.90;99.90
12815;DHT22;6472;52.328;13.070;2023-02-17T07:06:39;8.00;99.90
12815;DHT22;6472;52.328;13.070;2023-02-17T07:09:08;8.10;99.90
12815;DHT22;6472;52.328;13.070;2023-02-17T07:11:39;8.10;99.90
12815;DHT22;6472;52.328;13.070;2023-02-17T07:14:07;8.10;99.90
12815;DHT22;6472;52.328;13.070;2023-02-17T07:16:35;8.10;99.90
12815;DHT22;6472;52.328;13.070;2023-02-17T07:19:05;8.10;99.90
12815;DHT22;6472;52.328;13.070;2023-02-17T07:21:34;8.10;99.90
12815;DHT22;6472;52.328;13.070;2023-02-17T07:24:03;8.20;99.90
12815;DHT22;6472;52.328;13.070;2023-02-17T07:26:31;8.20;99.90
12815;DHT22;6472;52.328;13.070;2023-02-17T07:29:02;8.30;99.90
12815;DHT22;6472;52.328;13.070;2023-02-17T07:31:30;8.30;99.90
12815;DHT22;6472;52.328;13.070;2023-02-17T07:33:59;8.40;99.90
12815;DHT22;6472;52.328;13.070;2023-02-17T07:36:28;8.40;99.90
12815;DHT22;6472;52.328;13.070;2023-02-17T07:38:57;8.30;99.90
12815;DHT22;6472;52.328;13.070;2023-02-17T07:41:26;8.50;99.90
12815;DHT22;6472;52.328;13.070;2023-02-17T07:43:58;8.50;99.90
12815;DHT22;6472;52.328;13.070;2023-02-17T07:46:27;8.50;99.90
12815;DHT22;6472;52.328;13.070;2023-02-17T07:48:55;8.60;99.90
12815;DHT22;6472;52.328;13.070;2023-02-17T07:51:24;8.60;99.90
12815;DHT22;6472;52.328;13.070;2023-02-17T07:53:52;8.60;99.90
12815;DHT22;6472;52.328;13.070;2023-02-17T07:56:22;8.70;99.90
12815;DHT22;6472;52.328;13.070;2023-02-17T07:58:51;8.90;99.90
12815;DHT22;6472;52.328;13.070;2023-02-17T08:01:21;8.90;99.90
12815;DHT22;6472;52.328;13.070;2023-02-17T08:03:50;8.90;99.90
12815;DHT22;6472;52.328;13.070;2023-02-17T08:06:19;8.90;99.90
12815;DHT22;6472;52.328;13.070;2023-02-17T08:08:48;9.00;99.90
12815;DHT22;6472;52.328;13.070;2023-02-17T08:11:36;8.80;99.90
12815;DHT22;6472;52.328;13.070;2023-02-17T08:14:23;8.90;99.90
12815;DHT22;6472;52.328;13.070;2023-02-17T08:16:52;8.90;99.90
12815;DHT22;6472;52.328;13.070;2023-02-17T08:19:21;8.90;99.90
12815;DHT22;6472;52.328;13.070;2023-02-17T08:21:49;9.00;99.90
12815;DHT22;6472;52.328;13.070;2023-02-17T08:24:17;9.00;99.90
12815;DHT22;6472;52.328;13.070;2023-02-17T08:26:48;9.10;99.90
12815;DHT22;6472;52.328;13.070;2023-02-17T08:29:17;9.10;99.90
12815;DHT22;6472;52.328;13.070;2023-02-17T08:31:49;9.20;99.90
12815;DHT22;6472;52.328;13.070;2023-02-17T08:34:18;9.30;99.90
12815;DHT22;6472;52.328;13.070;2023-02-17T08:36:46;9.30;99.90
12815;DHT22;6472;52.328;13.070;2023-02-17T08:39:16;9.30;99.90
12815;DHT22;6472;52.328;13.070;2023-02-17T08:41:45;9.40;99.90
12815;DHT22;6472;52.328;13.070;2023-02-17T08:44:16;9.30;99.90
12815;DHT22;6472;52.328;13.070;2023-02-17T08:46:47;9.30;99.90
12815;DHT22;6472;52.328;13.070;2023-02-17T08:49:17;9.40;99.90
12815;DHT22;6472;52.328;13.070;2023-02-17T08:51:46;9.20;99.90
12815;DHT22;6472;52.328;13.070;2023-02-17T08:54:14;9.20;99.90
12815;DHT22;6472;52.328;13.070;2023-02-17T08:56:43;9.20;99.90
12815;DHT22;6472;52.328;13.070;2023-02-17T08:59:11;9.20;99.90
12815;DHT22;6472;52.328;13.070;2023-02-17T09:01:41;9.10;99.90
12815;DHT22;6472;52.328;13.070;2023-02-17T09:04:12;9.10;99.90
12815;DHT22;6472;52.328;13.070;2023-02-17T09:06:43;9.10;99.90
12815;DHT22;6472;52.328;13.070;2023-02-17T09:09:13;9.10;99.90
12815;DHT22;6472;52.328;13.070;2023-02-17T09:11:43;9.10;99.90
12815;DHT22;6472;52.328;13.070;2023-02-17T09:14:11;9.20;99.90
12815;DHT22;6472;52.328;13.070;2023-02-17T09:16:41;9.10;99.90
12815;DHT22;6472;52.328;13.070;2023-02-17T09:19:09;9.00;99.90
12815;DHT22;6472;52.328;13.070;2023-02-17T09:21:37;9.10;99.90
12815;DHT22;6472;52.328;13.070;2023-02-17T09:24:05;9.10;99.90
12815;DHT22;6472;52.328;13.070;2023-02-17T09:26:33;9.10;99.90
12815;DHT22;6472;52.328;13.070;2023-02-17T09:29:02;9.10;99.90
12815;DHT22;6472;52.328;13.070;2023-02-17T09:31:31;9.10;99.90
12815;DHT22;6472;52.328;13.070;2023-02-17T09:34:02;9.20;99.90
12815;DHT22;6472;52.328;13.070;2023-02-17T09:36:32;9.20;99.90
12815;DHT22;6472;52.328;13.070;2023-02-17T09:39:01;9.20;99.90
12815;DHT22;6472;52.328;13.070;2023-02-17T09:41:35;9.20;99.90
12815;DHT22;6472;52.328;13.070;2023-02-17T09:44:05;9.10;99.90
12815;DHT22;6472;52.328;13.070;2023-02-17T09:46:36;9.10;99.90
12815;DHT22;6472;52.328;13.070;2023-02-17T09:49:25;9.10;99.90
12815;DHT22;6472;52.328;13.070;2023-02-17T09:51:59;9.10;99.90
12815;DHT22;6472;52.328;13.070;2023-02-17T09:54:33;9.10;99.90
12815;DHT22;6472;52.328;13.070;2023-02-17T09:57:07;9.10;99.90
12815;DHT22;6472;52.328;13.070;2023-02-17T09:59:41;9.10;99.90
12815;DHT22;6472;52.328;13.070;2023-02-17T10:02:15;9.20;99.90
12815;DHT22;6472;52.328;13.070;2023-02-17T10:04:48;9.30;99.90
12815;DHT22;6472;52.328;13.070;2023-02-17T10:07:23;9.30;99.90
12815;DHT22;6472;52.328;13.070;2023-02-17T10:09:56;9.40;99.90
12815;DHT22;6472;52.328;13.070;2023-02-17T10:12:29;9.40;99.90
12815;DHT22;6472;52.328;13.070;2023-02-17T10:15:04;9.40;99.90
12815;DHT22;6472;52.328;13.070;2023-02-17T10:17:36;9.40;99.90
12815;DHT22;6472;52.328;13.070;2023-02-17T10:20:10;9.40;99.90
12815;DHT22;6472;52.328;13.070;2023-02-17T10:22:45;9.40;99.90
12815;DHT22;6472;52.328;13.070;2023-02-17T10:25:16;9.50;99.90
12815;DHT22;6472;52.328;13.070;2023-02-17T10:27:49;9.50;99.90
12815;DHT22;6472;52.328;13.070;2023-02-17T10:30:30;9.60;99.90
12815;DHT22;6472;52.328;13.070;2023-02-17T10:33:05;9.70;99.90
12815;DHT22;6472;52.328;13.070;2023-02-17T10:35:48;9.80;99.90
12815;DHT22;6472;52.328;13.070;2023-02-17T10:38:20;9.90;99.90
12815;DHT22;6472;52.328;13.070;2023-02-17T10:40:54;10.00;99.90
12815;DHT22;6472;52.328;13.070;2023-02-17T10:43:26;10.00;99.90
12815;DHT22;6472;52.328;13.070;2023-02-17T10:45:56;10.10;99.90
12815;DHT22;6472;52.328;13.070;2023-02-17T10:48:32;10.10;99.90
12815;DHT22;6472;52.328;13.070;2023-02-17T10:51:02;10.20;99.90
12815;DHT22;6472;52.328;13.070;2023-02-17T10:53:32;10.30;99.90
12815;DHT22;6472;52.328;13.070;2023-02-17T10:56:05;10.30;99.90
12815;DHT22;6472;52.328;13.070;2023-02-17T10:58:39;10.40;99.90
12815;DHT22;6472;52.328;13.070;2023-02-17T11:01:13;10.40;99.90
12815;DHT22;6472;52.328;13.070;2023-02-17T11:03:41;10.40;99.90
12815;DHT22;6472;52.328;13.070;2023-02-17T11:06:17;10.40;99.90
12815;DHT22;6472;52.328;13.070;2023-02-17T11:08:49;10.60;99.90
12815;DHT22;6472;52.328;13.070;2023-02-17T11:11:19;10.60;99.90
12815;DHT22;6472;52.328;13.070;2023-02-17T11:14:02;10.70;99.90
12815;DHT22;6472;52.328;13.070;2023-02-17T11:16:36;10.70;99.90
12815;DHT22;6472;52.328;13.070;2023-02-17T11:19:06;10.80;99.90
12815;DHT22;6472;52.328;13.070;2023-02-17T11:21:46;10.80;99.90
12815;DHT22;6472;52.328;13.070;2023-02-17T11:24:14;10.90;99.90
12815;DHT22;6472;52.328;13.070;2023-02-17T11:26:43;10.90;99.90
12815;DHT22;6472;52.328;13.070;2023-02-17T11:29:22;11.00;99.90
12815;DHT22;6472;52.328;13.070;2023-02-17T11:31:54;10.90;99.90
12815;DHT22;6472;52.328;13.070;2023-02-17T11:34:24;11.00;99.90
12815;DHT22;6472;52.328;13.070;2023-02-17T11:37:00;10.90;99.90
12815;DHT22;6472;52.328;13.070;2023-02-17T11:39:29;11.00;99.90
12815;DHT22;6472;52.328;13.070;2023-02-17T11:41:57;11.00;99.90
12815;DHT22;6472;52.328;13.070;2023-02-17T11:44:26;11.00;99.90
12815;DHT22;6472;52.328;13.070;2023-02-17T11:47:05;11.10;99.90
12815;DHT22;6472;52.328;13.070;2023-02-17T11:50:05;11.10;99.90
12815;DHT22;6472;52.328;13.070;2023-02-17T11:52:50;11.20;99.90
12815;DHT22;6472;52.328;13.070;2023-02-17T11:55:24;11.20;99.90
12815;DHT22;6472;52.328;13.070;2023-02-17T11:58:10;11.20;99.90
12815;DHT22;6472;52.328;13.070;2023-02-17T12:00:45;11.30;99.90
12815;DHT22;6472;52.328;13.070;2023-02-17T12:06:28;11.30;99.90
12815;DHT22;6472;52.328;13.070;2023-02-17T12:09:10;11.30;99.90
12815;DHT22;6472;52.328;13.070;2023-02-17T12:11:48;11.30;99.90
12815;DHT22;6472;52.328;13.070;2023-02-17T12:17:15;11.30;99.90
12815;DHT22;6472;52.328;13.070;2023-02-17T12:20:07;11.30;99.90
12815;DHT22;6472;52.328;13.070;2023-02-17T12:22:56;11.40;99.90
12815;DHT22;6472;52.328;13.070;2023-02-17T12:25:31;11.40;99.90
12815;DHT22;6472;52.328;13.070;2023-02-17T12:28:09;11.50;99.90
12815;DHT22;6472;52.328;13.070;2023-02-17T12:30:51;11.60;99.90
12815;DHT22;6472;52.328;13.070;2023-02-17T12:33:37;11.70;99.90
12815;DHT22;6472;52.328;13.070;2023-02-17T12:36:08;11.80;99.90
12815;DHT22;6472;52.328;13.070;2023-02-17T12:38:40;11.90;99.90
12815;DHT22;6472;52.328;13.070;2023-02-17T12:41:13;11.90;99.90
12815;DHT22;6472;52.328;13.070;2023-02-17T12:43:46;11.90;99.90
12815;DHT22;6472;52.328;13.070;2023-02-17T12:46:19;12.00;99.90
12815;DHT22;6472;52.328;13.070;2023-02-17T12:48:51;12.00;99.90
12815;DHT22;6472;52.328;13.070;2023-02-17T12:51:23;12.10;99.90
12815;DHT22;6472;52.328;13.070;2023-02-17T12:53:55;12.20;99.90
12815;DHT22;6472;52.328;13.070;2023-02-17T12:56:46;12.30;99.90
12815;DHT22;6472;52.328;13.070;2023-02-17T12:59:18;12.30;99.90
12815;DHT22;6472;52.328;13.070;2023-02-17T13:01:51;12.40;99.90
12815;DHT22;6472;52.328;13.070;2023-02-17T13:04:22;12.40;99.90
12815;DHT22;6472;52.328;13.070;2023-02-17T13:06:58;12.50;99.90
12815;DHT22;6472;52.328;13.070;2023-02-17T13:09:32;12.60;99.90
12815;DHT22;6472;52.328;13.070;2023-02-17T13:12:16;12.60;99.90
12815;DHT22;6472;52.328;13.070;2023-02-17T13:14:46;12.60;99.90
12815;DHT22;6472;52.328;13.070;2023-02-17T13:17:23;12.60;99.90
12815;DHT22;6472;52.328;13.070;2023-02-17T13:20:23;12.60;99.90
12815;DHT22;6472;52.328;13.070;2023-02-17T13:23:06;12.60;99.90
12815;DHT22;6472;52.328;13.070;2023-02-17T13:25:35;12.60;99.90
12815;DHT22;6472;52.328;13.070;2023-02-17T13:28:30;12.60;99.90
12815;DHT22;6472;52.328;13.070;2023-02-17T13:31:12;12.70;99.90
12815;DHT22;6472;52.328;13.070;2023-02-17T13:33:48;12.70;99.90
12815;DHT22;6472;52.328;13.070;2023-02-17T13:36:20;12.80;99.90
12815;DHT22;6472;52.328;13.070;2023-02-17T13:38:57;12.70;99.90
12815;DHT22;6472;52.328;13.070;2023-02-17T13:41:28;12.70;99.90
12815;DHT22;6472;52.328;13.070;2023-02-17T13:44:16;12.70;99.90
12815;DHT22;6472;52.328;13.070;2023-02-17T13:46:47;12.70;99.90
12815;DHT22;6472;52.328;13.070;2023-02-17T13:49:21;12.60;99.90
12815;DHT22;6472;52.328;13.070;2023-02-17T13:51:49;12.60;99.90
12815;DHT22;6472;52.328;13.070;2023-02-17T13:54:19;12.60;99.90
12815;DHT22;6472;52.328;13.070;2023-02-17T13:56:50;12.50;99.90
12815;DHT22;6472;52.328;13.070;2023-02-17T13:59:25;12.60;99.90
12815;DHT22;6472;52.328;13.070;2023-02-17T14:01:54;12.50;99.90
12815;DHT22;6472;52.328;13.070;2023-02-17T14:04:25;12.60;99.90
12815;DHT22;6472;52.328;13.070;2023-02-17T14:06:56;12.60;99.90
12815;DHT22;6472;52.328;13.070;2023-02-17T14:09:27;12.60;99.90
12815;DHT22;6472;52.328;13.070;2023-02-17T14:11:57;12.60;99.90
12815;DHT22;6472;52.328;13.070;2023-02-17T14:14:29;12.70;99.90
12815;DHT22;6472;52.328;13.070;2023-02-17T14:17:00;12.50;99.90
12815;DHT22;6472;52.328;13.070;2023-02-17T14:19:31;12.50;99.90
12815;DHT22;6472;52.328;13.070;2023-02-17T14:22:22;12.50;99.90
12815;DHT22;6472;52.328;13.070;2023-02-17T14:24:58;12.50;99.90
12815;DHT22;6472;52.328;13.070;2023-02-17T14:27:26;12.50;99.90
12815;DHT22;6472;52.328;13.070;2023-02-17T14:29:56;12.60;99.90
12815;DHT22;6472;52.328;13.070;2023-02-17T14:32:27;12.60;99.90
12815;DHT22;6472;52.328;13.070;2023-02-17T14:35:06;12.70;99.90
12815;DHT22;6472;52.328;13.070;2023-02-17T14:37:35;12.80;99.90
12815;DHT22;6472;52.328;13.070;2023-02-17T14:40:04;12.80;99.90
12815;DHT22;6472;52.328;13.070;2023-02-17T14:42:32;12.70;99.90
12815;DHT22;6472;52.328;13.070;2023-02-17T14:45:02;12.80;99.90
12815;DHT22;6472;52.328;13.070;2023-02-17T14:47:30;12.80;99.90
12815;DHT22;6472;52.328;13.070;2023-02-17T14:49:58;12.80;99.90
12815;DHT22;6472;52.328;13.070;2023-02-17T14:52:26;12.80;99.90
12815;DHT22;6472;52.328;13.070;2023-02-17T14:54:54;12.80;99.90
12815;DHT22;6472;52.328;13.070;2023-02-17T14:57:25;12.80;99.90
12815;DHT22;6472;52.328;13.070;2023-02-17T14:59:53;12.90;99.90
12815;DHT22;6472;52.328;13.070;2023-02-17T15:02:24;12.90;99.90
12815;DHT22;6472;52.328;13.070;2023-02-17T15:04:52;12.70;99.90
12815;DHT22;6472;52.328;13.070;2023-02-17T15:07:21;12.60;99.90
12815;DHT22;6472;52.328;13.070;2023-02-17T15:09:50;12.40;99.90
12815;DHT22;6472;52.328;13.070;2023-02-17T15:12:20;12.30;99.90
12815;DHT22;6472;52.328;13.070;2023-02-17T15:14:48;12.20;99.90
12815;DHT22;6472;52.328;13.070;2023-02-17T15:17:16;12.10;99.90
12815;DHT22;6472;52.328;13.070;2023-02-17T15:19:45;12.00;99.90
12815;DHT22;6472;52.328;13.070;2023-02-17T15:22:14;11.90;99.90
12815;DHT22;6472;52.328;13.070;2023-02-17T15:24:42;11.80;99.90
12815;DHT22;6472;52.328;13.070;2023-02-17T15:27:13;11.80;99.90
12815;DHT22;6472;52.328;13.070;2023-02-17T15:29:43;11.80;99.90
12815;DHT22;6472;52.328;13.070;2023-02-17T15:32:14;11.70;99.90
12815;DHT22;6472;52.328;13.070;2023-02-17T15:34:46;11.70;99.90
12815;DHT22;6472;52.328;13.070;2023-02-17T15:37:14;11.70;99.90
12815;DHT22;6472;52.328;13.070;2023-02-17T15:39:42;11.70;99.90
12815;DHT22;6472;52.328;13.070;2023-02-17T15:42:12;11.70;99.90
12815;DHT22;6472;52.328;13.070;2023-02-17T15:44:43;11.60;99.90
12815;DHT22;6472;52.328;13.070;2023-02-17T15:47:14;11.60;99.90
12815;DHT22;6472;52.328;13.070;2023-02-17T15:49:43;11.60;99.90
12815;DHT22;6472;52.328;13.070;2023-02-17T15:52:13;11.50;99.90
12815;DHT22;6472;52.328;13.070;2023-02-17T15:54:42;11.50;99.90
12815;DHT22;6472;52.328;13.070;2023-02-17T15:57:17;11.50;99.90
12815;DHT22;6472;52.328;13.070;2023-02-17T15:59:47;11.50;99.90
12815;DHT22;6472;52.328;13.070;2023-02-17T16:02:17;11.50;99.90
12815;DHT22;6472;52.328;13.070;2023-02-17T16:04:47;11.40;99.90
12815;DHT22;6472;52.328;13.070;2023-02-17T16:07:16;11.40;99.90
12815;DHT22;6472;52.328;13.070;2023-02-17T16:09:44;11.40;99.90
12815;DHT22;6472;52.328;13.070;2023-02-17T16:12:15;11.30;99.90
12815;DHT22;6472;52.328;13.070;2023-02-17T16:14:44;11.30;99.90
12815;DHT22;6472;52.328;13.070;2023-02-17T16:17:14;11.30;99.90
12815;DHT22;6472;52.328;13.070;2023-02-17T16:19:42;11.30;99.90